Lindenberg, Germany

5:31 AM CET on January 31, 2015 (GMT +0100)
Muellrose - Schlaubetal | Change Station
CLOSE
Current Station
Personal Weather Station
Location: Müllrose, BRANDENBURG
Elevation: 138 ft
Nearby Weather Stations

Elev 138 ft 52.23 °N, 14.41 °E | Updated 12 minutes ago

Mostly Cloudy
Mostly Cloudy
31.5 °F
Feels Like 32 °F
N
2.0
Wind Variable Wind from West
Gusts 5.0 mph

Today
High -- | Low -- °F
--% Chance of Precip.
Yesterday
High -- | Low -- °F
Precip. -- in
7:46 AM 4:48 PM
Waxing Gibbous, 87% visible
Pressure 28.82 in
Visibility 4.3 miles
Clouds Scattered Clouds 600 ft
Mostly Cloudy 1100 ft
Windchill 32 °F
Dew Point 30 °F
Humidity 95%
Rainfall 0.00 in
Snow Depth Not available.
UV 0 out of 12
Pollen Not available.
Air Quality Not available.
Flu Activity Not available.
METAR EDDB 310420Z 25010KT 7000 SCT006 BKN011 M00/M00 Q0976 R25R/292/95 TEMPO BKN009

More Conditions Fewer Conditions

Pressure 28.82 in
Visibility 4.3 miles
Clouds Scattered Clouds 600 ft
Mostly Cloudy 1100 ft
Windchill 32 °F
Dew Point 30 °F
Humidity 95%
Rainfall 0.00 in
Snow Depth Not available.
UV 0 out of 12
Pollen Not available.
Air Quality Not available.
Flu Activity Not available.
METAR EDDB 310420Z 25010KT 7000 SCT006 BKN011 M00/M00 Q0976 R25R/292/95 TEMPO BKN009

More Conditions Fewer Conditions

10-Day Weather Forecast

Almanac

Astronomy

Jan. 31, 2015 Rise Set
Actual Time
Civil Twilight
Nautical Twilight
Astronomical Twilight
Moon
Length of Visible Light
Length of Day
Tomorrow will be .
, % of the Moon is Illuminated

Today's Extremes

Country Highs Country Lows

Community

WunderPhotos

Upload Photos

1,791,999 photos uploaded!

WunderBlogs® & News

Nearby

Air Quality

  Air Quality AQ Index Pollutant
Not available.

Snow Depth

Station Depth Elevation

Earthquake Activity

City Distance Mag. Time & Date
Minimum magnitude displayed is 2.5.

Coastal Water Temperatures

Place Temperature

Nearby Weather Stations